Flight Track Log - Related Links

Times and Time Zones

All times are in EST time to prevent confusion due to time zone crossing. See the EGF3147 flight status page for this flight to view local times or setup timezone preferences in your user account.

Time Position Orientation Groundspeed Altitude Reporting Facility
EST Latitude Longitude Course Direction KTS MPH feet Rate Location/Type
Tue 05:56:56 PM 39.9911 -82.9164 186° South 190 219 1,500  Level Indianapolis Center
Tue 05:57:58 PM 39.9772 -82.9792 254° West 197 227 3,900 2,226 Climbing Indianapolis Center
Tue 05:59:00 PM 39.6966 -82.8270 187° South  Level Estimated
Tue 05:59:00 PM 39.9456 -83.0411 236° Southwest 226 260 6,100  Level Indianapolis Center
Tue 06:00:00 PM 39.5965 -82.8054 180° South  Level Estimated
Tue 06:00:02 PM 39.8786 -82.9947 152° Southeast 257 296 8,400  Level Indianapolis Center
Tue 06:01:00 PM 39.5067 -82.8667 208° Southwest  Level FlightAware Approximate
Tue 06:01:04 PM 39.7958 -82.9706 167° South 296 341 10,000  Level Indianapolis Center
Tue 06:02:00 PM 39.4067 -82.8445 186° South  Level Estimated
Tue 06:02:06 PM 39.7031 -82.9503 170° South 330 380 11,000  Level Indianapolis Center
Tue 06:03:08 PM 39.5833 -82.9231 170° South 357 411 12,500 1,355 Climbing Indianapolis Center
Tue 06:04:10 PM 39.4794 -82.8992 170° South 371 427 13,800 1,355 Climbing Indianapolis Center
Tue 06:05:12 PM 39.3756 -82.8744 170° South 375 432 15,300 1,452 Climbing Indianapolis Center
Tue 06:06:14 PM 39.2717 -82.8511 170° South 376 433 16,800 1,344 Climbing Indianapolis Center
Tue 06:07:17 PM 39.1711 -82.8267 169° South 376 433 18,100 1,488 Climbing Indianapolis Center
Tue 06:08:19 PM 39.0478 -82.8003 171° South 376 433 19,900 1,597 Climbing Indianapolis Center
Tue 06:09:21 PM 38.9428 -82.7750 169° South 378 435 21,400 1,452 Climbing Indianapolis Center
Tue 06:10:23 PM 38.8392 -82.7511 170° South 378 435 22,900 1,452 Climbing Indianapolis Center
Tue 06:11:25 PM 38.7314 -82.7269 170° South 381 438 24,400 1,452 Climbing Indianapolis Center
Tue 06:12:27 PM 38.6258 -82.7039 170° South 382 440 25,900 1,548 Climbing Indianapolis Center
Tue 06:13:29 PM 38.5053 -82.6753 169° South 381 438 27,600 1,355 Climbing Indianapolis Center
Tue 06:14:31 PM 38.4044 -82.6531 170° South 372 428 28,700 1,161 Climbing Indianapolis Center
Tue 06:15:33 PM 38.3031 -82.6294 170° South 371 427 30,000 1,210 Climbing Indianapolis Center
Tue 06:16:35 PM 38.2028 -82.6094 171° South 369 425 31,200 1,152 Climbing Indianapolis Center
Tue 06:17:38 PM 38.1058 -82.6069 179° South 353 406 32,400 1,248 Climbing Indianapolis Center
Tue 06:18:40 PM 37.9914 -82.5981 176° South 351 404 33,800 1,258 Climbing Indianapolis Center
Tue 06:19:42 PM 37.8947 -82.5894 176° South 351 404 35,000 1,113 Climbing Indianapolis Center
Tue 06:20:44 PM 37.7992 -82.5792 175° South 347 399 36,100 968 Climbing Indianapolis Center
Tue 06:21:46 PM 37.7044 -82.5639 173° South 344 396 37,000 435 Climbing Indianapolis Center
Tue 06:22:48 PM 37.6072 -82.5408 169° South 348 400 37,000  Level Indianapolis Center
Tue 06:23:50 PM 37.5033 -82.5142 168° South 369 425 37,000  Level Indianapolis Center
Tue 06:24:52 PM 37.3769 -82.4822 169° South 388 447 37,000  Level Indianapolis Center
Tue 06:25:54 PM 37.2650 -82.4542 169° South 400 460 37,000  Level Indianapolis Center
Tue 06:26:56 PM 37.1539 -82.4275 169° South 401 461 37,000  Level Indianapolis Center
Tue 06:27:58 PM 37.0422 -82.4014 169° South 402 463 37,000  Level Indianapolis Center
Tue 06:29:00 PM 36.9308 -82.3742 169° South 402 463 37,000  Level Indianapolis Center
Tue 06:30:03 PM 36.8194 -82.3464 169° South 402 463 37,000  Level Indianapolis Center
Tue 06:31:05 PM 36.7081 -82.3197 169° South 402 463 37,000  Level Indianapolis Center
Tue 06:32:07 PM 36.5775 -82.2889 169° South 404 465 37,000  Level Indianapolis Center
Tue 06:33:09 PM 36.4664 -82.2622 169° South 404 465 37,000  Level Indianapolis Center
Tue 06:34:11 PM 36.3542 -82.2353 169° South 404 465 37,000  Level Indianapolis Center
Tue 06:35:13 PM 36.2419 -82.2089 169° South 405 466 37,000  Level Indianapolis Center
Tue 06:36:15 PM 36.1314 -82.1825 169° South 405 466 37,000  Level Indianapolis Center
Tue 06:37:17 PM 36.0197 -82.1561 169° South 405 466 37,000  Level Indianapolis Center
Tue 06:38:22 PM 35.8975 -82.1289 170° South 410 472 37,000  Level Atlanta Center
Tue 06:39:22 PM 35.7844 -82.1036 170° South 415 478 37,000  Level Atlanta Center
Tue 06:40:22 PM 35.6756 -82.0781 169° South 410 472 37,000  Level Atlanta Center
Tue 06:41:22 PM 35.5603 -82.0528 170° South 415 478 37,000  Level Atlanta Center
Tue 06:42:22 PM 35.4494 -82.0272 169° South 409 471 37,000  Level Atlanta Center
Tue 06:43:22 PM 35.3361 -81.9994 169° South 409 471 37,000 -300 Level Atlanta Center
Tue 06:44:22 PM 35.2128 -81.9719 170° South 414 476 36,400 -500 Descending Atlanta Center
Tue 06:45:22 PM 35.0994 -81.9469 170° South 409 471 36,000 -200 Descending Atlanta Center
Tue 06:46:22 PM 34.9908 -81.9394 177° South 409 471 36,000  Level Atlanta Center
Tue 06:47:22 PM 34.8847 -81.9522 186° South 397 457 36,000  Level Atlanta Center
Tue 06:48:22 PM 34.7786 -81.9728 189° South 397 457 36,000  Level Atlanta Center
Tue 06:49:22 PM 34.6725 -81.9931 189° South 397 457 36,000  Level Atlanta Center
Tue 06:50:22 PM 34.5644 -82.0108 188° South 392 451 36,000  Level Atlanta Center
Tue 06:51:22 PM 34.4583 -82.0308 189° South 392 451 36,000  Level Atlanta Center
Tue 06:52:22 PM 34.3519 -82.0486 188° South 387 445 36,000  Level Atlanta Center
Tue 06:53:22 PM 34.2458 -82.0686 189° South 387 445 36,000  Level Atlanta Center
Tue 06:54:22 PM 34.1397 -82.0886 189° South 387 445 36,000  Level Atlanta Center
Tue 06:55:22 PM 34.0336 -82.1036 187° South 387 445 36,000  Level Atlanta Center
Tue 06:56:22 PM 33.9253 -82.1236 189° South 387 445 36,000  Level Atlanta Center
Tue 06:57:22 PM 33.8192 -82.1386 187° South 387 445 36,000  Level Atlanta Center
Tue 06:58:22 PM 33.7108 -82.1583 189° South 387 445 36,000  Level Atlanta Center
Tue 06:59:22 PM 33.5961 -82.1483 176° South 392 451 36,000  Level Atlanta Center
Tue 07:00:22 PM 33.4811 -82.1361 175° South 408 470 36,000  Level Atlanta Center
Tue 07:01:22 PM 33.3681 -82.1236 175° South 408 470 36,000  Level Atlanta Center
Tue 07:02:22 PM 33.2553 -82.1086 174° South 408 470 36,000  Level Atlanta Center
Tue 07:03:22 PM 33.1422 -82.0989 176° South 408 470 36,000  Level Atlanta Center
Tue 07:04:22 PM 33.0294 -82.0839 174° South 408 470 36,000  Level Atlanta Center
Tue 07:06:14 PM 32.8319 -82.0619 175° South 422 486 36,000  Level Jacksonville Center
Tue 07:07:14 PM 32.7169 -82.0481 174° South 422 486 36,000  Level Jacksonville Center
Tue 07:08:14 PM 32.6019 -82.0369 175° South 422 486 36,000  Level Jacksonville Center
Tue 07:09:14 PM 32.4892 -82.0231 174° South 422 486 36,000  Level Jacksonville Center
Tue 07:10:14 PM 32.3661 -82.0119 176° South 412 474 36,000  Level Jacksonville Center
Tue 07:11:14 PM 32.2531 -82.0008 175° South 412 474 36,000  Level Jacksonville Center
Tue 07:12:14 PM 32.1486 -81.9872 174° South 412 474 36,000  Level Jacksonville Center
Tue 07:13:14 PM 32.0233 -81.9736 175° South 412 474 36,000  Level Jacksonville Center
Tue 07:14:14 PM 31.9208 -81.9528 170° South 412 474 36,000  Level Jacksonville Center
Tue 07:15:14 PM 31.7953 -81.9147 166° South 412 474 36,000  Level Jacksonville Center
Tue 07:16:14 PM 31.6822 -81.8842 167° South 418 481 36,000  Level Jacksonville Center
Tue 07:17:14 PM 31.5797 -81.8561 167° South 418 481 36,000  Level Jacksonville Center
Tue 07:18:14 PM 31.4522 -81.8186 166° South 423 487 36,000  Level Jacksonville Center
Tue 07:19:14 PM 31.3517 -81.7931 168° South 423 487 36,000  Level Jacksonville Center
Tue 07:20:14 PM 31.2344 -81.7603 167° South 423 487 36,000  Level Jacksonville Center
Tue 07:21:14 PM 31.1214 -81.7278 166° South 428 493 36,000  Level Jacksonville Center
Tue 07:22:14 PM 31.0064 -81.6953 166° South 428 493 36,000  Level Jacksonville Center
Tue 07:23:14 PM 30.8869 -81.6628 167° South 433 498 36,000  Level Jacksonville Center
Tue 07:24:14 PM 30.7739 -81.6306 166° South 433 498 36,000  Level Jacksonville Center
Tue 07:25:14 PM 30.6567 -81.5983 167° South 433 498 36,000  Level Jacksonville Center
Tue 07:26:14 PM 30.5394 -81.5661 167° South 433 498 36,000  Level Jacksonville Center
Tue 07:27:14 PM 30.4139 -81.5317 167° South 433 498 36,000  Level Jacksonville Center
Tue 07:28:14 PM 30.2964 -81.4972 166° South 433 498 36,000  Level Jacksonville Center
Tue 07:29:14 PM 30.1792 -81.4508 161° South 433 498 36,000  Level Jacksonville Center
Tue 07:30:14 PM 30.0636 -81.4047 161° South 438 504 36,000  Level Jacksonville Center
Tue 07:31:14 PM 29.9483 -81.3583 161° South 444 511 36,000  Level Jacksonville Center
Tue 07:32:14 PM 29.8289 -81.3147 162° South 444 511 36,000  Level Jacksonville Center
Tue 07:33:14 PM 29.7133 -81.2689 161° South 444 511 36,000  Level Jacksonville Center
Tue 07:34:14 PM 29.5981 -81.2231 161° South 444 511 36,000  Level Jacksonville Center
Tue 07:36:12 PM 29.3864 -81.1356 160° South 455 524 36,000  Level Miami Center
Tue 07:37:12 PM 29.2708 -81.0953 163° South 448 516 36,000  Level Miami Center
Tue 07:38:12 PM 29.1572 -81.0506 161° South 434 499 36,000  Level Miami Center
Tue 07:39:12 PM 29.0461 -81.0058 161° South 429 494 36,000  Level Miami Center
Tue 07:40:12 PM 28.9306 -80.9611 161° South 429 494 36,000  Level Miami Center
Tue 07:41:12 PM 28.8169 -80.9192 162° South 429 494 36,000  Level Miami Center
Tue 07:42:12 PM 28.6869 -80.8672 161° South 444 511 36,000  Level Miami Center
Tue 07:43:12 PM 28.5819 -80.8231 160° South 449 517 36,000  Level Miami Center
Tue 07:44:12 PM 28.4661 -80.7814 162° South 449 517 36,000  Level Miami Center
Tue 07:45:12 PM 28.3467 -80.7300 159° South 444 511 36,000  Level Miami Center
Tue 07:46:12 PM 28.2308 -80.6836 161° South 444 511 36,000 -650 Level Miami Center
Tue 07:47:12 PM 28.1133 -80.6372 161° South 444 511 34,700 -1,650 Descending Miami Center
Tue 07:48:12 PM 27.9972 -80.5981 163° South 439 505 32,700 -2,000 Descending Miami Center
Tue 07:49:12 PM 27.8753 -80.5564 163° South 439 505 30,700 -2,050 Descending Miami Center
Tue 07:50:12 PM 27.7428 -80.5147 164° South 450 518 28,600 -2,050 Descending Miami Center
Tue 07:51:12 PM 27.6292 -80.4711 161° South 445 512 26,600 -2,000 Descending Miami Center
Tue 07:52:12 PM 27.5133 -80.4253 161° South 445 512 24,600 -1,300 Descending Miami Center
Tue 07:53:12 PM 27.3994 -80.3797 160° South 440 506 24,000 -300 Descending Miami Center
Tue 07:54:12 PM 27.2839 -80.3317 160° South 440 506 24,000 -600 Level Miami Center
Tue 07:55:12 PM 27.1681 -80.2864 161° South 440 506 22,800 -1,550 Descending Miami Center
Tue 07:56:12 PM 27.0583 -80.2411 160° South 440 506 20,900 -1,950 Descending Miami Center
Tue 07:57:12 PM 26.9508 -80.1983 160° South 429 494 18,900 -1,900 Descending Miami Center
Tue 07:58:12 PM 26.8597 -80.1586 159° South 403 464 17,100 -1,850 Descending Miami Center
Tue 07:59:12 PM 26.7439 -80.1133 161° South 398 458 15,200 -1,300 Descending Miami Center
Tue 08:00:12 PM 26.6444 -80.0806 164° South 393 452 14,500 -1,176 Descending Miami Center
Tue 08:00:54 PM 26.5672 -80.0689 172° South 370 426 13,200 -1,500 Descending Miami Center
Tue 08:01:12 PM 26.5422 -80.0636 169° South 380 437 13,000 -245 Descending Miami Center
Tue 08:01:43 PM 26.4922 -80.0578 174° South 354 407 13,000  Level Miami Center
Tue 08:02:24 PM 26.4319 -80.0444 169° South 359 413 13,000  Level Miami Center
Tue 08:02:44 PM 26.3967 -80.0389 172° South 317 365 13,000 -1,200 Level Miami Center
Tue 08:03:24 PM 26.3425 -80.0306 172° South 340 391 11,800 -1,770 Descending Miami Center
Tue 08:03:45 PM 26.3072 -80.0250 172° South 321 369 11,200 -1,600 Descending Miami Center
Tue 08:04:24 PM 26.2531 -80.0142 170° South 334 384 10,200 -1,180 Descending Miami Center
Tue 08:04:46 PM 26.2194 -80.0225 193° South 320 368 10,000 -200 Descending Miami Center
Tue 08:05:24 PM 26.1669 -80.0350 192° South 329 379 10,000  Level Miami Center
Tue 08:05:47 PM 26.1353 -80.0481 200° South 305 351 10,000 -600 Level Miami Center
Tue 08:06:24 PM 26.0892 -80.0608 194° South 313 360 9,400 -1,180 Descending Miami Center
Tue 08:06:48 PM 26.0597 -80.0692 194° South 287 330 8,800 -1,400 Descending Miami Center
Tue 08:07:24 PM 26.0136 -80.0794 191° South 300 345 8,000 -787 Descending Miami Center
Tue 08:07:49 PM 25.9819 -80.0925 200° South 258 297 8,000  Level Miami Center
Tue 08:08:24 PM 25.9544 -80.1103 210° Southwest 268 308 8,000  Level Miami Center
Tue 08:08:50 PM 25.9494 -80.1447 261° West 230 265 8,000  Level Miami Center
Tue 08:09:24 PM 25.9464 -80.1817 265° West 209 241 8,000  Level Miami Center
Tue 08:09:51 PM 25.9456 -80.2186 269° West 241 277 8,000 -800 Level Miami Center
Tue 08:10:24 PM 25.9469 -80.2578 272° West 219 252 7,200 -1,672 Descending Miami Center
Tue 08:10:52 PM 25.9419 -80.2900 260° West 225 259 6,300 -2,337 Descending Miami Center
Tue 08:11:59 PM 25.9111 -80.3539 242° Southwest 229 264 3,500 -1,875 Descending Miami Center
Tue 08:13:00 PM 25.8667 -80.3850 212° Southwest 167 192 2,300 -1,041 Descending Miami Center
Tue 08:14:00 PM 25.8292 -80.3722 163° South 138 159 1,400 -835 Descending Miami Center
Tue 08:14:55 PM 25.8133 -80.3372 117° Southeast 138 159 700 -764 Descending Miami Center

Login

Don't have an account? Register now (free) for customized features, flight alerts, and more!